Pagina principală
METAR-TAF:

METAR-TAF

Aeroporturi :

Pohnpei, Micronezia

Latitudine: 06-59N, longitudine: 158-12E, elevație: 2 m

Observații meteo curente

Raportul a fost făcut în urmă cu 6 ore și 17 de minute, la 05:57 UTC
Vânt 5 kt de la Est/Nord-est
Temperatură 31°C
Umiditate 75%
Presiune 1008 hPa
Vizibilitate: 24.1 km
Nori puțini la o înălțime de 1800 picior
Nori împrăștiați la o înălțime de 30000 picior

METAR: PTPN 280557Z 07005KT 15SM FEW018 SCT300 31/26 A2978 RMK LAST

Ora: 23:14 (12:14 UTC)

Prognoză

Raportul a fost făcut în urmă cu 6 ore și 52 de minute, la 05:22 UTC
Prognoză valabilă de la 28 ora 06 UTC la 29 ora 06 UTC
Vânt 7 kt de la Est/Sud-est
Vizibilitate: 10 km
Nori împrăștiați la o înălțime de 1800 picior
averse în apropiere

TAF: PTPN 280522Z 2806/2906 12007KT P6SM VCSH SCT018

Observații și prognoze meteo pentru peste 4.000 de aeroporturi (rapoarte METAR și TAF).

Stațiile disponibile sunt reprezentate pe hartă prin puncte galbene și roșii.

Țineți indicatorul mouse-ului pe punctul dorit pentru a vedea denumirea stației.

Apoi, faceți clic pentru a vedea observațiile și prognozele meteorologice.

Pentru a schimba harta: Pentru mărire, faceți clic pe butoanele verzi cu cruce neagră; pentru micșorare, pe butonul verde cu o liniuță; pentru hărți învecinate, pe săgețile verzi.


METAR-TAF: